sensor_id;sensor_type;location;lat;lon;timestamp;temperature;humidity
46590;DHT22;32313;48.722;9.362;2024-03-02T00:01:04;2.50;99.90
46590;DHT22;32313;48.722;9.362;2024-03-02T00:03:30;2.50;99.90
46590;DHT22;32313;48.722;9.362;2024-03-02T00:05:56;2.50;99.90
46590;DHT22;32313;48.722;9.362;2024-03-02T00:08:25;2.60;99.90
46590;DHT22;32313;48.722;9.362;2024-03-02T00:11:01;2.60;99.90
46590;DHT22;32313;48.722;9.362;2024-03-02T00:13:29;2.50;99.90
46590;DHT22;32313;48.722;9.362;2024-03-02T00:15:56;2.40;99.90
46590;DHT22;32313;48.722;9.362;2024-03-02T00:18:33;2.30;99.90
46590;DHT22;32313;48.722;9.362;2024-03-02T00:21:00;2.40;99.90
46590;DHT22;32313;48.722;9.362;2024-03-02T00:23:33;2.40;99.90
46590;DHT22;32313;48.722;9.362;2024-03-02T00:26:00;2.30;99.90
46590;DHT22;32313;48.722;9.362;2024-03-02T00:28:30;2.30;99.90
46590;DHT22;32313;48.722;9.362;2024-03-02T00:31:09;2.30;99.90
46590;DHT22;32313;48.722;9.362;2024-03-02T00:33:44;2.30;99.90
46590;DHT22;32313;48.722;9.362;2024-03-02T00:36:12;2.30;99.90
46590;DHT22;32313;48.722;9.362;2024-03-02T00:38:46;2.30;99.90
46590;DHT22;32313;48.722;9.362;2024-03-02T00:41:31;2.30;99.90
46590;DHT22;32313;48.722;9.362;2024-03-02T00:44:01;2.30;99.90
46590;DHT22;32313;48.722;9.362;2024-03-02T00:46:33;2.30;99.90
46590;DHT22;32313;48.722;9.362;2024-03-02T00:49:01;2.20;99.90
46590;DHT22;32313;48.722;9.362;2024-03-02T00:51:30;2.20;99.90
46590;DHT22;32313;48.722;9.362;2024-03-02T00:53:58;2.20;99.90
46590;DHT22;32313;48.722;9.362;2024-03-02T00:56:25;2.30;99.90
46590;DHT22;32313;48.722;9.362;2024-03-02T00:58:52;2.30;99.90
46590;DHT22;32313;48.722;9.362;2024-03-02T01:01:18;2.30;99.90
46590;DHT22;32313;48.722;9.362;2024-03-02T01:03:45;2.20;99.90
46590;DHT22;32313;48.722;9.362;2024-03-02T01:06:11;2.20;99.90
46590;DHT22;32313;48.722;9.362;2024-03-02T01:08:37;2.20;99.90
46590;DHT22;32313;48.722;9.362;2024-03-02T01:11:03;2.20;99.90
46590;DHT22;32313;48.722;9.362;2024-03-02T01:13:29;2.20;99.90
46590;DHT22;32313;48.722;9.362;2024-03-02T01:15:55;2.10;99.90
46590;DHT22;32313;48.722;9.362;2024-03-02T01:18:21;2.10;99.90
46590;DHT22;32313;48.722;9.362;2024-03-02T01:20:50;2.10;99.90
46590;DHT22;32313;48.722;9.362;2024-03-02T01:23:25;2.10;99.90
46590;DHT22;32313;48.722;9.362;2024-03-02T01:25:51;2.10;99.90
46590;DHT22;32313;48.722;9.362;2024-03-02T01:28:18;2.10;99.90
46590;DHT22;32313;48.722;9.362;2024-03-02T01:30:44;2.10;99.90
46590;DHT22;32313;48.722;9.362;2024-03-02T01:33:10;2.20;99.90
46590;DHT22;32313;48.722;9.362;2024-03-02T01:35:36;2.10;99.90
46590;DHT22;32313;48.722;9.362;2024-03-02T01:38:03;2.10;99.90
46590;DHT22;32313;48.722;9.362;2024-03-02T01:40:29;2.10;99.90
46590;DHT22;32313;48.722;9.362;2024-03-02T01:42:55;2.10;99.90
46590;DHT22;32313;48.722;9.362;2024-03-02T01:45:23;2.10;99.90
46590;DHT22;32313;48.722;9.362;2024-03-02T01:47:49;2.10;99.90
46590;DHT22;32313;48.722;9.362;2024-03-02T01:50:15;2.00;99.90
46590;DHT22;32313;48.722;9.362;2024-03-02T01:52:41;2.00;99.90
46590;DHT22;32313;48.722;9.362;2024-03-02T01:55:07;2.00;99.90
46590;DHT22;32313;48.722;9.362;2024-03-02T01:57:36;1.90;99.90
46590;DHT22;32313;48.722;9.362;2024-03-02T02:00:01;1.90;99.90
46590;DHT22;32313;48.722;9.362;2024-03-02T02:02:37;1.90;99.90
46590;DHT22;32313;48.722;9.362;2024-03-02T02:05:03;1.80;99.90
46590;DHT22;32313;48.722;9.362;2024-03-02T02:07:29;1.80;99.90
46590;DHT22;32313;48.722;9.362;2024-03-02T02:09:55;1.80;99.90
46590;DHT22;32313;48.722;9.362;2024-03-02T02:12:20;1.70;99.90
46590;DHT22;32313;48.722;9.362;2024-03-02T02:14:50;1.70;99.90
46590;DHT22;32313;48.722;9.362;2024-03-02T02:17:18;1.70;99.90
46590;DHT22;32313;48.722;9.362;2024-03-02T02:19:44;1.70;99.90
46590;DHT22;32313;48.722;9.362;2024-03-02T02:22:11;1.70;99.90
46590;DHT22;32313;48.722;9.362;2024-03-02T02:24:42;1.70;99.90
46590;DHT22;32313;48.722;9.362;2024-03-02T02:27:09;1.60;99.90
46590;DHT22;32313;48.722;9.362;2024-03-02T02:29:35;1.60;99.90
46590;DHT22;32313;48.722;9.362;2024-03-02T02:32:01;1.50;99.90
46590;DHT22;32313;48.722;9.362;2024-03-02T02:34:27;1.40;99.90
46590;DHT22;32313;48.722;9.362;2024-03-02T02:36:53;1.40;99.90
46590;DHT22;32313;48.722;9.362;2024-03-02T02:39:22;1.40;99.90
46590;DHT22;32313;48.722;9.362;2024-03-02T02:41:48;1.30;99.90
46590;DHT22;32313;48.722;9.362;2024-03-02T02:44:14;1.30;99.90
46590;DHT22;32313;48.722;9.362;2024-03-02T02:46:40;1.20;99.90
46590;DHT22;32313;48.722;9.362;2024-03-02T02:49:06;1.10;99.90
46590;DHT22;32313;48.722;9.362;2024-03-02T02:51:32;1.10;99.90
46590;DHT22;32313;48.722;9.362;2024-03-02T02:53:57;1.10;99.90
46590;DHT22;32313;48.722;9.362;2024-03-02T02:56:23;1.10;99.90
46590;DHT22;32313;48.722;9.362;2024-03-02T02:58:49;1.00;99.90
46590;DHT22;32313;48.722;9.362;2024-03-02T03:01:15;1.00;99.90
46590;DHT22;32313;48.722;9.362;2024-03-02T03:03:45;1.00;99.90
46590;DHT22;32313;48.722;9.362;2024-03-02T03:06:11;0.90;99.90
46590;DHT22;32313;48.722;9.362;2024-03-02T03:08:37;0.90;99.90
46590;DHT22;32313;48.722;9.362;2024-03-02T03:11:03;0.80;99.90
46590;DHT22;32313;48.722;9.362;2024-03-02T03:13:31;0.80;99.90
46590;DHT22;32313;48.722;9.362;2024-03-02T03:15:56;0.80;99.90
46590;DHT22;32313;48.722;9.362;2024-03-02T03:18:22;0.70;99.90
46590;DHT22;32313;48.722;9.362;2024-03-02T03:20:48;0.70;99.90
46590;DHT22;32313;48.722;9.362;2024-03-02T03:23:13;0.70;99.90
46590;DHT22;32313;48.722;9.362;2024-03-02T03:25:45;0.70;99.90
46590;DHT22;32313;48.722;9.362;2024-03-02T03:28:10;0.70;99.90
46590;DHT22;32313;48.722;9.362;2024-03-02T03:30:48;0.70;99.90
46590;DHT22;32313;48.722;9.362;2024-03-02T03:33:14;0.70;99.90
46590;DHT22;32313;48.722;9.362;2024-03-02T03:35:39;0.80;99.90
46590;DHT22;32313;48.722;9.362;2024-03-02T03:38:06;0.70;99.90
46590;DHT22;32313;48.722;9.362;2024-03-02T03:40:32;0.70;99.90
46590;DHT22;32313;48.722;9.362;2024-03-02T03:42:58;0.60;99.90
46590;DHT22;32313;48.722;9.362;2024-03-02T03:45:25;0.70;99.90
46590;DHT22;32313;48.722;9.362;2024-03-02T03:47:53;0.70;99.90
46590;DHT22;32313;48.722;9.362;2024-03-02T03:50:18;0.70;99.90
46590;DHT22;32313;48.722;9.362;2024-03-02T03:52:45;0.70;99.90
46590;DHT22;32313;48.722;9.362;2024-03-02T03:55:11;0.70;99.90
46590;DHT22;32313;48.722;9.362;2024-03-02T03:57:36;0.50;99.90
46590;DHT22;32313;48.722;9.362;2024-03-02T04:00:03;0.50;99.90
46590;DHT22;32313;48.722;9.362;2024-03-02T04:02:37;0.40;99.90
46590;DHT22;32313;48.722;9.362;2024-03-02T04:05:04;0.40;99.90
46590;DHT22;32313;48.722;9.362;2024-03-02T04:07:35;0.30;99.90
46590;DHT22;32313;48.722;9.362;2024-03-02T04:10:06;0.30;99.90
46590;DHT22;32313;48.722;9.362;2024-03-02T04:12:34;0.20;99.90
46590;DHT22;32313;48.722;9.362;2024-03-02T04:15:00;0.20;99.90
46590;DHT22;32313;48.722;9.362;2024-03-02T04:17:27;0.20;99.90
46590;DHT22;32313;48.722;9.362;2024-03-02T04:19:53;0.20;99.90
46590;DHT22;32313;48.722;9.362;2024-03-02T04:22:18;0.20;99.90
46590;DHT22;32313;48.722;9.362;2024-03-02T04:24:44;0.20;99.90
46590;DHT22;32313;48.722;9.362;2024-03-02T04:27:10;0.10;99.90
46590;DHT22;32313;48.722;9.362;2024-03-02T04:29:35;0.10;99.90
46590;DHT22;32313;48.722;9.362;2024-03-02T04:32:01;0.20;99.90
46590;DHT22;32313;48.722;9.362;2024-03-02T04:34:26;0.10;99.90
46590;DHT22;32313;48.722;9.362;2024-03-02T04:36:52;0.10;99.90
46590;DHT22;32313;48.722;9.362;2024-03-02T04:39:18;0.10;99.90
46590;DHT22;32313;48.722;9.362;2024-03-02T04:41:44;0.10;99.90
46590;DHT22;32313;48.722;9.362;2024-03-02T04:44:09;0.10;99.90
46590;DHT22;32313;48.722;9.362;2024-03-02T04:46:35;0.10;99.90
46590;DHT22;32313;48.722;9.362;2024-03-02T04:49:01;0.10;99.90
46590;DHT22;32313;48.722;9.362;2024-03-02T04:51:26;0.00;99.90
46590;DHT22;32313;48.722;9.362;2024-03-02T04:53:55;0.00;99.90
46590;DHT22;32313;48.722;9.362;2024-03-02T04:56:21;-0.10;99.90
46590;DHT22;32313;48.722;9.362;2024-03-02T04:59:10;-0.20;99.90
46590;DHT22;32313;48.722;9.362;2024-03-02T05:01:35;-0.20;99.90
46590;DHT22;32313;48.722;9.362;2024-03-02T05:04:01;-0.20;99.90
46590;DHT22;32313;48.722;9.362;2024-03-02T05:06:27;-0.20;99.90
46590;DHT22;32313;48.722;9.362;2024-03-02T05:08:53;-0.30;99.90
46590;DHT22;32313;48.722;9.362;2024-03-02T05:11:18;-0.30;99.90
46590;DHT22;32313;48.722;9.362;2024-03-02T05:14:06;-0.30;99.90
46590;DHT22;32313;48.722;9.362;2024-03-02T05:16:35;-0.40;99.90
46590;DHT22;32313;48.722;9.362;2024-03-02T05:19:01;-0.40;99.90
46590;DHT22;32313;48.722;9.362;2024-03-02T05:21:26;-0.40;99.90
46590;DHT22;32313;48.722;9.362;2024-03-02T05:23:52;-0.50;99.90
46590;DHT22;32313;48.722;9.362;2024-03-02T05:26:17;-0.50;99.90
46590;DHT22;32313;48.722;9.362;2024-03-02T05:28:43;-0.50;99.90
46590;DHT22;32313;48.722;9.362;2024-03-02T05:31:10;-0.50;99.90
46590;DHT22;32313;48.722;9.362;2024-03-02T05:33:40;-0.50;99.90
46590;DHT22;32313;48.722;9.362;2024-03-02T05:36:06;-0.60;99.90
46590;DHT22;32313;48.722;9.362;2024-03-02T05:38:34;-0.60;99.90
46590;DHT22;32313;48.722;9.362;2024-03-02T05:41:00;-0.60;99.90
46590;DHT22;32313;48.722;9.362;2024-03-02T05:43:25;-0.50;99.90
46590;DHT22;32313;48.722;9.362;2024-03-02T05:45:51;-0.50;99.90
46590;DHT22;32313;48.722;9.362;2024-03-02T05:48:17;-0.40;99.90
46590;DHT22;32313;48.722;9.362;2024-03-02T05:50:42;-0.30;99.90
46590;DHT22;32313;48.722;9.362;2024-03-02T05:53:08;-0.30;99.90
46590;DHT22;32313;48.722;9.362;2024-03-02T05:55:34;-0.40;99.90
46590;DHT22;32313;48.722;9.362;2024-03-02T05:58:00;-0.40;99.90
46590;DHT22;32313;48.722;9.362;2024-03-02T06:00:32;-0.40;99.90
46590;DHT22;32313;48.722;9.362;2024-03-02T06:02:58;-0.30;99.90
46590;DHT22;32313;48.722;9.362;2024-03-02T06:05:24;-0.30;99.90
46590;DHT22;32313;48.722;9.362;2024-03-02T06:07:50;-0.30;99.90
46590;DHT22;32313;48.722;9.362;2024-03-02T06:10:16;-0.30;99.90
46590;DHT22;32313;48.722;9.362;2024-03-02T06:12:43;-0.30;99.90
46590;DHT22;32313;48.722;9.362;2024-03-02T06:15:09;-0.20;99.90
46590;DHT22;32313;48.722;9.362;2024-03-02T06:17:35;-0.20;99.90
46590;DHT22;32313;48.722;9.362;2024-03-02T06:20:01;-0.20;99.90
46590;DHT22;32313;48.722;9.362;2024-03-02T06:22:26;-0.20;99.90
46590;DHT22;32313;48.722;9.362;2024-03-02T06:24:52;-0.20;99.90
46590;DHT22;32313;48.722;9.362;2024-03-02T06:27:18;-0.30;99.90
46590;DHT22;32313;48.722;9.362;2024-03-02T06:29:44;-0.30;99.90
46590;DHT22;32313;48.722;9.362;2024-03-02T06:32:10;-0.30;99.90
46590;DHT22;32313;48.722;9.362;2024-03-02T06:34:35;-0.40;99.90
46590;DHT22;32313;48.722;9.362;2024-03-02T06:37:01;-0.30;99.90
46590;DHT22;32313;48.722;9.362;2024-03-02T06:39:26;-0.30;99.90
46590;DHT22;32313;48.722;9.362;2024-03-02T06:41:52;-0.30;99.90
46590;DHT22;32313;48.722;9.362;2024-03-02T06:44:18;-0.30;99.90
46590;DHT22;32313;48.722;9.362;2024-03-02T06:46:43;-0.20;99.90
46590;DHT22;32313;48.722;9.362;2024-03-02T06:49:09;-0.20;99.90
46590;DHT22;32313;48.722;9.362;2024-03-02T06:51:38;-0.10;99.90
46590;DHT22;32313;48.722;9.362;2024-03-02T06:54:03;-0.10;99.90
46590;DHT22;32313;48.722;9.362;2024-03-02T06:56:29;0.00;99.90
46590;DHT22;32313;48.722;9.362;2024-03-02T06:58:56;0.00;99.90
46590;DHT22;32313;48.722;9.362;2024-03-02T07:01:21;0.00;99.90
46590;DHT22;32313;48.722;9.362;2024-03-02T07:03:47;0.00;99.90
46590;DHT22;32313;48.722;9.362;2024-03-02T07:06:13;0.10;99.90
46590;DHT22;32313;48.722;9.362;2024-03-02T07:08:39;0.20;99.90
46590;DHT22;32313;48.722;9.362;2024-03-02T07:11:04;0.20;99.90
46590;DHT22;32313;48.722;9.362;2024-03-02T07:13:30;0.40;99.90
46590;DHT22;32313;48.722;9.362;2024-03-02T07:15:55;0.60;99.90
46590;DHT22;32313;48.722;9.362;2024-03-02T07:18:36;0.70;99.90
46590;DHT22;32313;48.722;9.362;2024-03-02T07:21:10;0.90;99.90
46590;DHT22;32313;48.722;9.362;2024-03-02T07:23:36;1.00;99.90
46590;DHT22;32313;48.722;9.362;2024-03-02T07:26:01;1.10;99.90
46590;DHT22;32313;48.722;9.362;2024-03-02T07:28:29;1.30;99.90
46590;DHT22;32313;48.722;9.362;2024-03-02T07:31:01;1.50;99.90
46590;DHT22;32313;48.722;9.362;2024-03-02T07:33:27;1.70;99.90
46590;DHT22;32313;48.722;9.362;2024-03-02T07:35:57;2.00;99.90
46590;DHT22;32313;48.722;9.362;2024-03-02T07:38:24;2.40;99.90
46590;DHT22;32313;48.722;9.362;2024-03-02T07:40:50;2.80;99.90
46590;DHT22;32313;48.722;9.362;2024-03-02T07:43:17;3.20;99.90
46590;DHT22;32313;48.722;9.362;2024-03-02T07:45:43;3.60;99.90
46590;DHT22;32313;48.722;9.362;2024-03-02T07:48:08;4.10;99.90
46590;DHT22;32313;48.722;9.362;2024-03-02T07:50:34;4.70;99.90
46590;DHT22;32313;48.722;9.362;2024-03-02T07:53:03;5.20;99.90
46590;DHT22;32313;48.722;9.362;2024-03-02T07:55:29;5.50;99.90
46590;DHT22;32313;48.722;9.362;2024-03-02T07:57:56;5.40;99.90
46590;DHT22;32313;48.722;9.362;2024-03-02T08:00:23;5.40;99.90
46590;DHT22;32313;48.722;9.362;2024-03-02T08:02:49;5.50;99.90
46590;DHT22;32313;48.722;9.362;2024-03-02T08:05:16;5.80;99.90
46590;DHT22;32313;48.722;9.362;2024-03-02T08:07:44;5.90;99.90
46590;DHT22;32313;48.722;9.362;2024-03-02T08:10:10;5.70;99.90
46590;DHT22;32313;48.722;9.362;2024-03-02T08:12:36;5.40;99.90
46590;DHT22;32313;48.722;9.362;2024-03-02T08:15:01;5.10;99.90
46590;DHT22;32313;48.722;9.362;2024-03-02T08:17:27;4.90;99.90
46590;DHT22;32313;48.722;9.362;2024-03-02T08:19:53;4.80;99.90
46590;DHT22;32313;48.722;9.362;2024-03-02T08:22:19;4.70;99.90
46590;DHT22;32313;48.722;9.362;2024-03-02T08:24:45;4.80;99.90
46590;DHT22;32313;48.722;9.362;2024-03-02T08:27:11;5.00;99.90
46590;DHT22;32313;48.722;9.362;2024-03-02T08:29:37;5.10;99.90
46590;DHT22;32313;48.722;9.362;2024-03-02T08:32:04;5.20;99.90
46590;DHT22;32313;48.722;9.362;2024-03-02T08:34:30;5.30;99.90
46590;DHT22;32313;48.722;9.362;2024-03-02T08:36:56;5.30;99.90
46590;DHT22;32313;48.722;9.362;2024-03-02T08:39:21;5.30;99.90
46590;DHT22;32313;48.722;9.362;2024-03-02T08:41:47;5.30;99.90
46590;DHT22;32313;48.722;9.362;2024-03-02T08:44:14;5.30;99.90
46590;DHT22;32313;48.722;9.362;2024-03-02T08:46:40;5.60;99.90
46590;DHT22;32313;48.722;9.362;2024-03-02T08:49:06;6.10;99.90
46590;DHT22;32313;48.722;9.362;2024-03-02T08:51:33;6.70;99.90
46590;DHT22;32313;48.722;9.362;2024-03-02T08:53:59;7.30;99.90
46590;DHT22;32313;48.722;9.362;2024-03-02T08:56:25;7.50;99.90
46590;DHT22;32313;48.722;9.362;2024-03-02T08:58:52;7.70;99.90
46590;DHT22;32313;48.722;9.362;2024-03-02T09:01:18;7.80;99.90
46590;DHT22;32313;48.722;9.362;2024-03-02T09:03:45;8.10;99.90
46590;DHT22;32313;48.722;9.362;2024-03-02T09:06:11;8.70;99.90
46590;DHT22;32313;48.722;9.362;2024-03-02T09:08:37;9.60;99.90
46590;DHT22;32313;48.722;9.362;2024-03-02T09:11:05;10.30;99.90
46590;DHT22;32313;48.722;9.362;2024-03-02T09:13:32;11.10;99.90
46590;DHT22;32313;48.722;9.362;2024-03-02T09:15:57;11.30;99.90
46590;DHT22;32313;48.722;9.362;2024-03-02T09:18:23;11.20;99.90
46590;DHT22;32313;48.722;9.362;2024-03-02T09:20:49;11.10;99.90
46590;DHT22;32313;48.722;9.362;2024-03-02T09:23:14;11.00;99.90
46590;DHT22;32313;48.722;9.362;2024-03-02T09:25:40;11.30;99.90
46590;DHT22;32313;48.722;9.362;2024-03-02T09:28:06;11.80;99.90
46590;DHT22;32313;48.722;9.362;2024-03-02T09:30:32;12.30;99.90
46590;DHT22;32313;48.722;9.362;2024-03-02T09:32:58;12.80;99.90
46590;DHT22;32313;48.722;9.362;2024-03-02T09:35:24;13.20;99.90
46590;DHT22;32313;48.722;9.362;2024-03-02T09:37:50;13.60;99.90
46590;DHT22;32313;48.722;9.362;2024-03-02T09:40:15;13.80;99.90
46590;DHT22;32313;48.722;9.362;2024-03-02T09:42:42;14.30;99.90
46590;DHT22;32313;48.722;9.362;2024-03-02T09:45:09;14.80;99.90
46590;DHT22;32313;48.722;9.362;2024-03-02T09:47:34;15.00;99.90
46590;DHT22;32313;48.722;9.362;2024-03-02T09:50:00;15.00;99.90
46590;DHT22;32313;48.722;9.362;2024-03-02T09:52:26;15.20;99.90
46590;DHT22;32313;48.722;9.362;2024-03-02T09:54:52;15.40;99.90
46590;DHT22;32313;48.722;9.362;2024-03-02T09:57:18;15.70;99.90
46590;DHT22;32313;48.722;9.362;2024-03-02T09:59:44;16.10;99.90
46590;DHT22;32313;48.722;9.362;2024-03-02T10:02:11;16.60;99.90
46590;DHT22;32313;48.722;9.362;2024-03-02T10:04:36;17.30;99.90
46590;DHT22;32313;48.722;9.362;2024-03-02T10:07:16;17.40;99.90
46590;DHT22;32313;48.722;9.362;2024-03-02T10:09:43;17.80;99.90
46590;DHT22;32313;48.722;9.362;2024-03-02T10:12:10;18.20;99.90
46590;DHT22;32313;48.722;9.362;2024-03-02T10:14:37;18.20;99.90
46590;DHT22;32313;48.722;9.362;2024-03-02T10:17:09;18.30;99.90
46590;DHT22;32313;48.722;9.362;2024-03-02T10:19:36;18.50;99.90
46590;DHT22;32313;48.722;9.362;2024-03-02T10:22:04;18.40;99.90
46590;DHT22;32313;48.722;9.362;2024-03-02T10:24:37;18.20;99.90
46590;DHT22;32313;48.722;9.362;2024-03-02T10:27:14;18.20;99.90
46590;DHT22;32313;48.722;9.362;2024-03-02T10:29:40;18.40;99.90
46590;DHT22;32313;48.722;9.362;2024-03-02T10:32:10;18.40;99.90
46590;DHT22;32313;48.722;9.362;2024-03-02T10:34:39;18.90;99.90
46590;DHT22;32313;48.722;9.362;2024-03-02T10:37:06;19.30;99.90
46590;DHT22;32313;48.722;9.362;2024-03-02T10:39:34;19.80;99.90
46590;DHT22;32313;48.722;9.362;2024-03-02T10:42:02;20.10;99.90
46590;DHT22;32313;48.722;9.362;2024-03-02T10:44:30;19.80;99.60
46590;DHT22;32313;48.722;9.362;2024-03-02T10:46:56;19.80;97.10
46590;DHT22;32313;48.722;9.362;2024-03-02T10:49:23;20.00;99.20
46590;DHT22;32313;48.722;9.362;2024-03-02T10:51:51;20.10;97.60
46590;DHT22;32313;48.722;9.362;2024-03-02T10:54:20;20.00;94.50
46590;DHT22;32313;48.722;9.362;2024-03-02T10:56:59;20.10;97.50
46590;DHT22;32313;48.722;9.362;2024-03-02T10:59:33;20.40;97.70
46590;DHT22;32313;48.722;9.362;2024-03-02T11:02:02;20.80;97.70
46590;DHT22;32313;48.722;9.362;2024-03-02T11:04:29;21.10;96.60
46590;DHT22;32313;48.722;9.362;2024-03-02T11:07:04;21.20;96.40
46590;DHT22;32313;48.722;9.362;2024-03-02T11:09:31;21.50;96.60
46590;DHT22;32313;48.722;9.362;2024-03-02T11:12:22;21.70;95.00
46590;DHT22;32313;48.722;9.362;2024-03-02T11:14:51;21.70;91.70
46590;DHT22;32313;48.722;9.362;2024-03-02T11:17:20;21.90;92.70
46590;DHT22;32313;48.722;9.362;2024-03-02T11:19:46;21.80;92.50
46590;DHT22;32313;48.722;9.362;2024-03-02T11:22:13;22.00;93.40
46590;DHT22;32313;48.722;9.362;2024-03-02T11:24:50;22.30;91.50
46590;DHT22;32313;48.722;9.362;2024-03-02T11:33:00;22.10;83.70
46590;DHT22;32313;48.722;9.362;2024-03-02T11:35:26;22.30;88.30
46590;DHT22;32313;48.722;9.362;2024-03-02T11:37:52;22.70;88.10
46590;DHT22;32313;48.722;9.362;2024-03-02T11:40:28;23.00;87.00
46590;DHT22;32313;48.722;9.362;2024-03-02T11:42:54;22.90;83.60
46590;DHT22;32313;48.722;9.362;2024-03-02T11:45:27;22.80;80.30
46590;DHT22;32313;48.722;9.362;2024-03-02T11:47:55;22.70;79.00
46590;DHT22;32313;48.722;9.362;2024-03-02T11:50:34;23.10;80.20
46590;DHT22;32313;48.722;9.362;2024-03-02T11:53:01;23.20;73.30
46590;DHT22;32313;48.722;9.362;2024-03-02T11:55:28;22.90;76.70
46590;DHT22;32313;48.722;9.362;2024-03-02T11:57:56;23.20;78.80
46590;DHT22;32313;48.722;9.362;2024-03-02T12:00:22;23.70;77.50
46590;DHT22;32313;48.722;9.362;2024-03-02T12:03:01;23.90;77.80
46590;DHT22;32313;48.722;9.362;2024-03-02T12:05:28;23.70;77.80
46590;DHT22;32313;48.722;9.362;2024-03-02T12:08:04;23.70;75.80
46590;DHT22;32313;48.722;9.362;2024-03-02T12:10:31;23.30;75.70
46590;DHT22;32313;48.722;9.362;2024-03-02T12:13:02;22.90;77.00
46590;DHT22;32313;48.722;9.362;2024-03-02T12:15:38;22.60;75.10
46590;DHT22;32313;48.722;9.362;2024-03-02T12:18:04;22.40;74.60
46590;DHT22;32313;48.722;9.362;2024-03-02T12:20:31;22.20;76.70
46590;DHT22;32313;48.722;9.362;2024-03-02T12:23:02;21.90;75.80
46590;DHT22;32313;48.722;9.362;2024-03-02T12:25:28;22.00;75.10
46590;DHT22;32313;48.722;9.362;2024-03-02T12:27:56;22.10;76.90
46590;DHT22;32313;48.722;9.362;2024-03-02T12:30:23;22.30;72.00
46590;DHT22;32313;48.722;9.362;2024-03-02T12:32:49;22.40;75.30
46590;DHT22;32313;48.722;9.362;2024-03-02T12:35:15;22.40;73.20
46590;DHT22;32313;48.722;9.362;2024-03-02T12:37:45;22.50;73.80
46590;DHT22;32313;48.722;9.362;2024-03-02T12:40:13;22.90;72.40
46590;DHT22;32313;48.722;9.362;2024-03-02T12:42:39;22.90;71.70
46590;DHT22;32313;48.722;9.362;2024-03-02T12:45:07;23.00;71.10
46590;DHT22;32313;48.722;9.362;2024-03-02T12:47:37;23.50;69.40
46590;DHT22;32313;48.722;9.362;2024-03-02T12:50:06;23.80;69.40
46590;DHT22;32313;48.722;9.362;2024-03-02T12:52:32;23.90;70.10
46590;DHT22;32313;48.722;9.362;2024-03-02T12:55:00;24.20;69.30
46590;DHT22;32313;48.722;9.362;2024-03-02T12:57:28;24.50;67.80
46590;DHT22;32313;48.722;9.362;2024-03-02T13:00:05;24.10;65.60
46590;DHT22;32313;48.722;9.362;2024-03-02T13:02:36;24.00;63.60
46590;DHT22;32313;48.722;9.362;2024-03-02T13:05:02;24.10;65.20
46590;DHT22;32313;48.722;9.362;2024-03-02T13:07:29;24.40;64.40
46590;DHT22;32313;48.722;9.362;2024-03-02T13:09:55;25.10;62.80
46590;DHT22;32313;48.722;9.362;2024-03-02T13:12:23;25.70;59.40
46590;DHT22;32313;48.722;9.362;2024-03-02T13:14:53;25.80;60.00
46590;DHT22;32313;48.722;9.362;2024-03-02T13:17:20;25.30;57.50
46590;DHT22;32313;48.722;9.362;2024-03-02T13:19:57;24.70;59.00
46590;DHT22;32313;48.722;9.362;2024-03-02T13:22:23;24.20;60.30
46590;DHT22;32313;48.722;9.362;2024-03-02T13:24:50;24.20;60.50
46590;DHT22;32313;48.722;9.362;2024-03-02T13:27:16;24.20;60.40
46590;DHT22;32313;48.722;9.362;2024-03-02T13:29:45;24.10;60.00
46590;DHT22;32313;48.722;9.362;2024-03-02T13:32:13;24.00;58.10
46590;DHT22;32313;48.722;9.362;2024-03-02T13:34:39;24.30;59.30
46590;DHT22;32313;48.722;9.362;2024-03-02T13:37:05;24.40;58.30
46590;DHT22;32313;48.722;9.362;2024-03-02T13:39:34;24.10;58.10
46590;DHT22;32313;48.722;9.362;2024-03-02T13:42:08;24.10;57.10
46590;DHT22;32313;48.722;9.362;2024-03-02T13:44:34;23.70;57.30
46590;DHT22;32313;48.722;9.362;2024-03-02T13:47:01;23.90;56.70
46590;DHT22;32313;48.722;9.362;2024-03-02T13:49:27;24.20;57.90
46590;DHT22;32313;48.722;9.362;2024-03-02T13:52:06;24.10;57.50
46590;DHT22;32313;48.722;9.362;2024-03-02T13:54:46;23.80;56.70
46590;DHT22;32313;48.722;9.362;2024-03-02T13:57:12;23.50;57.00
46590;DHT22;32313;48.722;9.362;2024-03-02T13:59:39;23.80;57.90
46590;DHT22;32313;48.722;9.362;2024-03-02T14:02:06;23.60;57.20
46590;DHT22;32313;48.722;9.362;2024-03-02T14:04:35;23.80;56.10
46590;DHT22;32313;48.722;9.362;2024-03-02T14:07:02;23.50;56.40
46590;DHT22;32313;48.722;9.362;2024-03-02T14:09:29;23.60;54.80
46590;DHT22;32313;48.722;9.362;2024-03-02T14:11:55;23.70;56.20
46590;DHT22;32313;48.722;9.362;2024-03-02T14:14:21;23.30;56.00
46590;DHT22;32313;48.722;9.362;2024-03-02T14:16:48;23.50;56.10
46590;DHT22;32313;48.722;9.362;2024-03-02T14:19:14;23.30;56.10
46590;DHT22;32313;48.722;9.362;2024-03-02T14:21:40;23.00;54.40
46590;DHT22;32313;48.722;9.362;2024-03-02T14:24:06;22.80;56.50
46590;DHT22;32313;48.722;9.362;2024-03-02T14:26:37;22.80;56.50
46590;DHT22;32313;48.722;9.362;2024-03-02T14:29:03;22.80;56.80
46590;DHT22;32313;48.722;9.362;2024-03-02T14:31:29;22.60;56.60
46590;DHT22;32313;48.722;9.362;2024-03-02T14:33:56;22.10;57.50
46590;DHT22;32313;48.722;9.362;2024-03-02T14:36:22;21.60;58.50
46590;DHT22;32313;48.722;9.362;2024-03-02T14:38:48;21.40;58.10
46590;DHT22;32313;48.722;9.362;2024-03-02T14:41:14;20.90;57.30
46590;DHT22;32313;48.722;9.362;2024-03-02T14:43:40;20.80;58.10
46590;DHT22;32313;48.722;9.362;2024-03-02T14:46:06;20.80;58.10
46590;DHT22;32313;48.722;9.362;2024-03-02T14:48:36;20.80;57.70
46590;DHT22;32313;48.722;9.362;2024-03-02T14:51:02;20.50;59.00
46590;DHT22;32313;48.722;9.362;2024-03-02T14:53:28;20.00;60.10
46590;DHT22;32313;48.722;9.362;2024-03-02T14:55:54;19.50;59.90
46590;DHT22;32313;48.722;9.362;2024-03-02T14:58:21;18.80;61.80
46590;DHT22;32313;48.722;9.362;2024-03-02T15:00:47;18.10;61.90
46590;DHT22;32313;48.722;9.362;2024-03-02T15:03:13;17.50;63.70
46590;DHT22;32313;48.722;9.362;2024-03-02T15:05:40;17.10;64.70
46590;DHT22;32313;48.722;9.362;2024-03-02T15:08:06;16.80;67.30
46590;DHT22;32313;48.722;9.362;2024-03-02T15:10:32;16.50;68.10
46590;DHT22;32313;48.722;9.362;2024-03-02T15:12:58;16.30;70.20
46590;DHT22;32313;48.722;9.362;2024-03-02T15:15:24;16.10;70.30
46590;DHT22;32313;48.722;9.362;2024-03-02T15:17:50;15.90;72.50
46590;DHT22;32313;48.722;9.362;2024-03-02T15:20:16;15.70;73.70
46590;DHT22;32313;48.722;9.362;2024-03-02T15:22:42;15.70;74.90
46590;DHT22;32313;48.722;9.362;2024-03-02T15:25:07;15.60;74.70
46590;DHT22;32313;48.722;9.362;2024-03-02T15:27:33;15.50;74.70
46590;DHT22;32313;48.722;9.362;2024-03-02T15:29:59;15.40;74.50
46590;DHT22;32313;48.722;9.362;2024-03-02T15:32:26;15.20;75.30
46590;DHT22;32313;48.722;9.362;2024-03-02T15:34:53;14.90;76.10
46590;DHT22;32313;48.722;9.362;2024-03-02T15:37:19;14.80;77.50
46590;DHT22;32313;48.722;9.362;2024-03-02T15:39:45;14.60;79.20
46590;DHT22;32313;48.722;9.362;2024-03-02T15:42:10;14.40;79.90
46590;DHT22;32313;48.722;9.362;2024-03-02T15:44:36;14.20;81.20